createdAt,value
2023-05-23T00:01:58.910Z,100111.13
2023-05-23T00:04:27.406Z,100098.97
2023-05-23T00:06:54.892Z,100112.88
2023-05-23T00:09:22.159Z,100105.94
2023-05-23T00:11:49.378Z,100102.50
2023-05-23T00:14:16.541Z,100108.56
2023-05-23T00:16:45.154Z,100112.91
2023-05-23T00:19:15.027Z,100110.31
2023-05-23T00:21:49.978Z,100113.78
2023-05-23T00:24:20.613Z,100119.84
2023-05-23T00:26:48.872Z,100119.00
2023-05-23T00:29:16.919Z,100111.19
2023-05-23T00:31:47.769Z,100112.06
2023-05-23T00:34:15.770Z,100123.31
2023-05-23T00:36:44.471Z,100116.41
2023-05-23T00:39:19.809Z,100112.06
2023-05-23T00:41:52.951Z,100115.53
2023-05-23T00:44:22.031Z,100117.25
2023-05-23T00:46:52.590Z,100120.69
2023-05-23T00:49:22.595Z,100118.97
2023-05-23T00:51:50.177Z,100125.91
2023-05-23T00:54:31.497Z,100118.06
2023-05-23T00:56:58.958Z,100118.97
2023-05-23T00:59:26.550Z,100117.19
2023-05-23T01:01:55.118Z,100126.75
2023-05-23T01:04:26.579Z,100128.47
2023-05-23T01:06:57.406Z,100123.25
2023-05-23T01:09:25.621Z,100120.66
2023-05-23T01:11:52.739Z,100115.47
2023-05-23T01:14:23.112Z,100117.16
2023-05-23T01:17:03.672Z,100119.75
2023-05-23T01:19:44.819Z,100132.75
2023-05-23T01:22:54.015Z,100124.06
2023-05-23T01:25:46.462Z,100132.72
2023-05-23T01:28:19.913Z,100125.78
2023-05-23T01:30:48.571Z,100125.75
2023-05-23T01:33:18.067Z,100124.88
2023-05-23T01:35:45.070Z,100126.56
2023-05-23T01:38:12.117Z,100123.97
2023-05-23T01:40:39.556Z,100126.53
2023-05-23T01:43:06.920Z,100114.34
2023-05-23T01:45:34.262Z,100107.38
2023-05-23T01:48:03.246Z,100140.34
2023-05-23T01:50:30.525Z,100138.56
2023-05-23T01:52:57.636Z,100135.94
2023-05-23T01:55:24.716Z,100130.69
2023-05-23T01:57:52.068Z,100138.50
2023-05-23T02:00:19.962Z,100128.06
2023-05-23T02:02:47.860Z,100130.66
2023-05-23T02:05:17.410Z,100123.72
2023-05-23T02:07:45.844Z,100117.59
2023-05-23T02:10:12.842Z,100130.59
2023-05-23T02:12:40.452Z,100134.88
2023-05-23T02:15:08.646Z,100128.78
2023-05-23T02:17:36.857Z,100130.50
2023-05-23T02:20:04.500Z,100124.38
2023-05-23T02:22:32.120Z,100136.50
2023-05-23T02:24:59.059Z,100132.16
2023-05-23T02:27:26.177Z,100136.47
2023-05-23T02:29:53.603Z,100130.34
2023-05-23T02:32:20.718Z,100133.81
2023-05-23T02:34:50.430Z,100121.59
2023-05-23T02:37:17.581Z,100122.44
2023-05-23T02:39:46.024Z,100117.25
2023-05-23T02:42:13.886Z,100124.16
2023-05-23T02:44:41.259Z,100124.13
2023-05-23T02:47:08.313Z,100128.44
2023-05-23T02:49:35.609Z,100118.84
2023-05-23T02:52:02.795Z,100114.50
2023-05-23T02:54:30.234Z,100111.84
2023-05-23T02:56:58.610Z,100120.53
2023-05-23T02:59:26.929Z,100108.34
2023-05-23T03:01:54.508Z,100110.94
2023-05-23T03:04:21.669Z,100107.47
2023-05-23T03:06:48.793Z,100114.41
2023-05-23T03:09:18.842Z,100107.47
2023-05-23T03:11:45.981Z,100116.13
2023-05-23T03:14:13.211Z,100113.53
2023-05-23T03:16:40.600Z,100113.53
2023-05-23T03:19:08.154Z,100114.44
2023-05-23T03:21:35.687Z,100117.06
2023-05-23T03:24:02.866Z,100117.06
2023-05-23T03:26:31.045Z,100111.00
2023-05-23T03:28:58.092Z,100117.94
2023-05-23T03:31:25.301Z,100117.09
2023-05-23T03:33:53.873Z,100121.44
2023-05-23T03:36:22.065Z,100117.97
2023-05-23T03:38:49.313Z,100121.47
2023-05-23T03:41:16.766Z,100135.41
2023-05-23T03:43:44.680Z,100152.78
2023-05-23T03:46:12.728Z,100144.13
2023-05-23T03:48:39.854Z,100151.06
2023-05-23T03:51:06.961Z,100164.09
2023-05-23T03:53:36.392Z,100160.63
2023-05-23T03:56:04.535Z,100162.34
2023-05-23T03:58:31.965Z,100162.34
2023-05-23T04:01:03.417Z,100164.91
2023-05-23T04:03:33.054Z,100164.91
2023-05-23T04:06:01.432Z,100162.31
2023-05-23T04:08:29.550Z,100158.84
2023-05-23T04:10:56.698Z,100155.34
2023-05-23T04:13:26.558Z,100154.44
2023-05-23T04:15:56.353Z,100151.84
2023-05-23T04:18:24.702Z,100155.28
2023-05-23T04:20:51.960Z,100147.44
2023-05-23T04:23:19.078Z,100144.84
2023-05-23T04:25:49.454Z,100147.38
2023-05-23T04:28:21.935Z,100152.56
2023-05-23T04:30:49.657Z,100144.72
2023-05-23T04:33:20.405Z,100150.78
2023-05-23T04:35:47.877Z,100149.88
2023-05-23T04:38:15.127Z,100154.19
2023-05-23T04:40:42.903Z,100149.81
2023-05-23T04:43:37.404Z,100149.78
2023-05-23T04:46:15.794Z,100142.81
2023-05-23T04:48:48.681Z,100146.22
2023-05-23T04:51:16.044Z,100146.13
2023-05-23T04:53:52.666Z,100141.72
2023-05-23T04:56:22.893Z,100134.66
2023-05-23T04:58:50.118Z,100143.22
2023-05-23T05:01:17.597Z,100137.03
2023-05-23T05:03:44.828Z,100135.16
2023-05-23T05:06:13.713Z,100127.22
2023-05-23T05:08:42.045Z,100129.69
2023-05-23T05:11:10.530Z,100128.69
2023-05-23T05:13:38.008Z,100133.78
2023-05-23T05:16:05.571Z,100125.84
2023-05-23T05:18:32.798Z,100126.59
2023-05-23T05:20:59.975Z,100136.06
2023-05-23T05:23:30.364Z,100131.63
2023-05-23T05:25:58.840Z,100131.53
2023-05-23T05:28:25.947Z,100125.34
2023-05-23T05:30:55.608Z,100122.69
2023-05-23T05:33:28.436Z,100121.66
2023-05-23T05:36:07.382Z,100121.50
2023-05-23T05:38:34.514Z,100115.25
2023-05-23T05:41:01.730Z,100102.94
2023-05-23T05:43:34.348Z,100110.69
2023-05-23T05:46:01.455Z,100101.78
2023-05-23T05:48:29.141Z,100092.91
2023-05-23T05:51:03.234Z,100084.06
2023-05-23T05:53:33.523Z,100079.50
2023-05-23T05:56:01.277Z,100079.38
2023-05-23T05:58:29.465Z,100094.00
2023-05-23T06:01:06.163Z,100092.00
2023-05-23T06:03:34.111Z,100089.13
2023-05-23T06:06:01.441Z,100090.59
2023-05-23T06:08:28.980Z,100093.91
2023-05-23T06:10:57.013Z,100093.72
2023-05-23T06:13:25.587Z,100089.25
2023-05-23T06:15:54.163Z,100089.09
2023-05-23T06:18:22.205Z,100089.91
2023-05-23T06:20:51.155Z,100085.50
2023-05-23T06:23:19.907Z,100078.44
2023-05-23T06:25:47.750Z,100077.56
2023-05-23T06:28:15.048Z,100075.81
2023-05-23T06:30:42.418Z,100077.50
2023-05-23T06:33:09.720Z,100078.31
2023-05-23T06:35:36.845Z,100080.09
2023-05-23T06:38:04.102Z,100088.78
2023-05-23T06:40:31.123Z,100090.38
2023-05-23T06:42:58.669Z,100093.69
2023-05-23T06:45:36.065Z,100099.56
2023-05-23T06:48:03.357Z,100099.34
2023-05-23T06:50:32.229Z,100097.44
2023-05-23T06:52:59.380Z,100087.72
2023-05-23T06:55:27.332Z,100090.25
2023-05-23T06:57:55.777Z,100085.81
2023-05-23T07:00:23.568Z,100094.56
2023-05-23T07:03:11.132Z,100093.69
2023-05-23T07:05:41.112Z,100091.13
2023-05-23T07:08:13.264Z,100090.44
2023-05-23T07:10:48.640Z,100096.75
2023-05-23T07:13:27.143Z,100102.97
2023-05-23T07:15:54.632Z,100101.38
2023-05-23T07:18:21.885Z,100104.97
2023-05-23T07:20:49.394Z,100106.84
2023-05-23T07:23:19.842Z,100106.84
2023-05-23T07:26:01.204Z,100111.28
2023-05-23T07:28:40.074Z,100115.78
2023-05-23T07:31:09.545Z,100112.38
2023-05-23T07:33:38.935Z,100113.34
2023-05-23T07:36:08.266Z,100103.84
2023-05-23T07:38:35.444Z,100108.38
2023-05-23T07:41:11.305Z,100101.56
2023-05-23T07:43:39.194Z,100091.16
2023-05-23T07:46:06.751Z,100091.28
2023-05-23T07:48:33.964Z,100095.72
2023-05-23T07:51:01.487Z,100105.47
2023-05-23T07:53:29.269Z,100115.19
2023-05-23T07:55:57.592Z,100123.19
2023-05-23T07:58:28.178Z,100131.09
2023-05-23T08:00:55.205Z,100125.00
2023-05-23T08:03:42.362Z,100130.25
2023-05-23T08:06:15.591Z,100126.88
2023-05-23T08:08:43.955Z,100128.59
2023-05-23T08:11:11.013Z,100121.63
2023-05-23T08:13:44.201Z,100115.50
2023-05-23T08:16:44.729Z,100112.81
2023-05-23T08:19:17.293Z,100111.09
2023-05-23T08:21:45.271Z,100120.69
2023-05-23T08:24:15.075Z,100121.63
2023-05-23T08:26:43.376Z,100124.25
2023-05-23T08:29:12.672Z,100119.91
2023-05-23T08:31:41.178Z,100113.78
2023-05-23T08:34:09.318Z,100112.88
2023-05-23T08:36:40.111Z,100108.56
2023-05-23T08:39:11.875Z,100115.63
2023-05-23T08:41:48.730Z,100111.41
2023-05-23T08:44:16.022Z,100105.41
2023-05-23T08:46:50.102Z,100102.91
2023-05-23T08:49:50.598Z,100111.78
2023-05-23T08:52:18.174Z,100117.91
2023-05-23T08:54:48.584Z,100107.56
2023-05-23T08:57:16.295Z,100105.00
2023-05-23T08:59:49.672Z,100107.66
2023-05-23T09:02:17.136Z,100113.81
2023-05-23T09:04:45.039Z,100110.34
2023-05-23T09:07:16.856Z,100115.59
2023-05-23T09:09:45.496Z,100112.97
2023-05-23T09:12:15.463Z,100114.69
2023-05-23T09:14:46.406Z,100114.69
2023-05-23T09:17:18.476Z,100106.84
2023-05-23T09:19:47.457Z,100101.53
2023-05-23T09:22:37.370Z,100097.97
2023-05-23T09:25:11.344Z,100094.31
2023-05-23T09:27:41.510Z,100097.69
2023-05-23T09:30:10.046Z,100097.56
2023-05-23T09:32:37.958Z,100096.53
2023-05-23T09:35:07.183Z,100085.81
2023-05-23T09:37:39.585Z,100092.66
2023-05-23T09:40:10.476Z,100094.19
2023-05-23T09:42:42.588Z,100091.38
2023-05-23T09:45:10.563Z,100094.69
2023-05-23T09:47:38.126Z,100087.59
2023-05-23T09:50:05.908Z,100083.16
2023-05-23T09:52:39.357Z,100083.00
2023-05-23T09:55:07.429Z,100094.25
2023-05-23T09:57:40.838Z,100080.19
2023-05-23T10:00:14.375Z,100074.72
2023-05-23T10:03:13.324Z,100066.63
2023-05-23T10:05:52.119Z,100063.75
2023-05-23T10:08:28.366Z,100066.16
2023-05-23T10:10:58.557Z,100077.25
2023-05-23T10:13:26.929Z,100070.16
2023-05-23T10:16:07.246Z,100074.25
2023-05-23T10:18:39.425Z,100074.09
2023-05-23T10:21:09.688Z,100075.56
2023-05-23T10:23:37.216Z,100070.88
2023-05-23T10:26:05.255Z,100072.28
2023-05-23T10:28:32.948Z,100075.38
2023-05-23T10:31:00.303Z,100067.06
2023-05-23T10:33:29.789Z,100064.53
2023-05-23T10:36:06.559Z,100066.28
2023-05-23T10:38:41.503Z,100062.16
2023-05-23T10:41:21.994Z,100068.34
2023-05-23T10:43:57.528Z,100061.78
2023-05-23T10:46:24.927Z,100065.97
2023-05-23T10:48:55.097Z,100068.53
2023-05-23T10:51:22.238Z,100074.66
2023-05-23T10:53:54.120Z,100065.75
2023-05-23T10:56:24.074Z,100060.56
2023-05-23T10:58:55.249Z,100046.59
2023-05-23T11:01:22.749Z,100050.94
2023-05-23T11:03:55.664Z,100054.47
2023-05-23T11:06:44.661Z,100049.94
2023-05-23T11:09:19.773Z,100047.31
2023-05-23T11:12:03.628Z,100038.41
2023-05-23T11:14:33.815Z,100038.28
2023-05-23T11:17:01.881Z,100028.56
2023-05-23T11:19:29.420Z,100022.28
2023-05-23T11:22:02.786Z,100025.34
2023-05-23T11:24:52.651Z,100013.31
2023-05-23T11:27:29.589Z,100017.19
2023-05-23T11:30:17.558Z,100011.44
2023-05-23T11:32:55.941Z,100011.75
2023-05-23T11:35:23.273Z,100022.75
2023-05-23T11:37:50.578Z,100024.31
2023-05-23T11:40:33.029Z,100027.50
2023-05-23T11:43:02.309Z,100021.81
2023-05-23T11:45:29.826Z,100023.50
2023-05-23T11:47:56.946Z,100019.13
2023-05-23T11:50:26.654Z,100022.75
2023-05-23T11:52:55.412Z,100019.19
2023-05-23T11:55:22.702Z,100016.50
2023-05-23T11:57:50.426Z,100008.50
2023-05-23T12:00:19.960Z,100006.66
2023-05-23T12:02:49.560Z,100006.66
2023-05-23T12:05:16.982Z,100007.66
2023-05-23T12:07:48.266Z,100004.25
2023-05-23T12:10:16.976Z,100004.44
2023-05-23T12:12:44.700Z,99994.75
2023-05-23T12:15:12.500Z,99997.38
2023-05-23T12:17:40.251Z,100007.00
2023-05-23T12:20:07.923Z,100009.63
2023-05-23T12:22:35.459Z,100007.00
2023-05-23T12:25:02.496Z,99996.34
2023-05-23T12:27:35.773Z,99998.75
2023-05-23T12:30:16.560Z,99995.88
2023-05-23T12:32:45.154Z,99987.00
2023-05-23T12:35:13.458Z,99995.81
2023-05-23T12:37:47.190Z,99996.75
2023-05-23T12:40:16.250Z,99981.75
2023-05-23T12:42:56.602Z,99977.38
2023-05-23T12:45:36.957Z,99980.91
2023-05-23T12:48:04.782Z,99989.09
2023-05-23T12:50:32.030Z,99987.41
2023-05-23T12:52:59.259Z,99985.72
2023-05-23T12:55:26.378Z,99980.56
2023-05-23T12:57:53.572Z,99983.28
2023-05-23T13:00:21.771Z,99972.84
2023-05-23T13:02:49.510Z,99972.84
2023-05-23T13:05:17.077Z,99971.13
2023-05-23T13:07:44.596Z,99973.78
2023-05-23T13:10:11.861Z,99967.59
2023-05-23T13:12:39.001Z,99954.19
2023-05-23T13:15:06.735Z,99952.31
2023-05-23T13:17:34.523Z,99953.09
2023-05-23T13:20:02.262Z,99951.38
2023-05-23T13:22:31.510Z,99951.38
2023-05-23T13:24:58.652Z,99943.41
2023-05-23T13:27:25.815Z,99948.50
2023-05-23T13:29:53.011Z,99947.50
2023-05-23T13:32:20.014Z,99946.50
2023-05-23T13:34:47.192Z,99945.63
2023-05-23T13:37:14.696Z,99934.31
2023-05-23T13:39:41.776Z,99932.41
2023-05-23T13:42:09.088Z,99935.88
2023-05-23T13:44:36.561Z,99934.97
2023-05-23T13:47:13.817Z,99930.47
2023-05-23T13:49:43.818Z,99927.97
2023-05-23T13:52:10.986Z,99929.78
2023-05-23T13:54:38.476Z,99932.47
2023-05-23T13:57:06.940Z,99922.91
2023-05-23T13:59:34.109Z,99919.41
2023-05-23T14:02:01.463Z,99923.06
2023-05-23T14:04:28.924Z,99923.31
2023-05-23T14:06:56.092Z,99921.97
2023-05-23T14:09:23.506Z,99919.69
2023-05-23T14:11:52.478Z,99912.03
2023-05-23T14:14:19.727Z,99903.59
2023-05-23T14:16:47.084Z,99902.16
2023-05-23T14:19:15.753Z,99912.00
2023-05-23T14:21:44.925Z,99910.41
2023-05-23T14:24:12.477Z,99915.94
2023-05-23T14:26:39.561Z,99919.69
2023-05-23T14:29:06.899Z,99917.09
2023-05-23T14:31:34.081Z,99912.03
2023-05-23T14:34:01.259Z,99917.34
2023-05-23T14:36:28.378Z,99914.84
2023-05-23T14:38:55.597Z,99915.91
2023-05-23T14:41:23.035Z,99917.84
2023-05-23T14:43:50.233Z,99918.91
2023-05-23T14:46:18.086Z,99906.75
2023-05-23T14:48:45.173Z,99899.81
2023-05-23T14:51:18.883Z,99899.94
2023-05-23T14:53:54.246Z,99890.44
2023-05-23T14:56:23.425Z,99890.56
2023-05-23T14:58:51.182Z,99873.13
2023-05-23T15:01:18.467Z,99866.28
2023-05-23T15:03:46.144Z,99864.69
2023-05-23T15:06:13.320Z,99864.81
2023-05-23T15:08:41.463Z,99856.16
2023-05-23T15:11:09.774Z,99857.94
2023-05-23T15:13:37.087Z,99850.16
2023-05-23T15:16:04.231Z,99861.72
2023-05-23T15:18:40.572Z,99861.84
2023-05-23T15:21:08.940Z,99853.16
2023-05-23T15:23:36.740Z,99856.72
2023-05-23T15:26:04.160Z,99855.03
2023-05-23T15:28:31.258Z,99855.13
2023-05-23T15:30:59.232Z,99854.38
2023-05-23T15:33:26.463Z,99865.78
2023-05-23T15:35:54.025Z,99858.00
2023-05-23T16:13:07.052Z,99844.19
2023-05-23T16:15:34.332Z,99836.63
2023-05-23T16:18:02.536Z,99832.31
2023-05-23T16:20:29.794Z,99829.78
2023-05-23T16:22:57.022Z,99825.44
2023-05-23T16:25:24.073Z,99819.38
2023-05-23T16:27:51.192Z,99825.63
2023-05-23T16:30:18.285Z,99822.19
2023-05-23T16:32:45.329Z,99819.66
2023-05-23T16:35:12.591Z,99829.34
2023-05-23T16:37:39.696Z,99825.06
2023-05-23T16:40:07.351Z,99825.94
2023-05-23T16:42:34.511Z,99826.94
2023-05-23T16:45:01.646Z,99826.22
2023-05-23T16:47:33.197Z,99829.00
2023-05-23T16:50:00.519Z,99831.63
2023-05-23T16:52:27.604Z,99829.13
2023-05-23T16:54:55.927Z,99823.97
2023-05-23T16:57:23.133Z,99831.03
2023-05-23T16:59:50.203Z,99825.81
2023-05-23T17:02:17.365Z,99829.34
2023-05-23T17:04:44.411Z,99823.28
2023-05-23T17:07:12.423Z,99820.72
2023-05-23T19:27:22.575Z,99837.09
2023-05-23T19:29:49.697Z,99844.84
2023-05-23T19:32:17.503Z,99847.34
2023-05-23T19:34:44.836Z,99842.03
2023-05-23T19:37:12.028Z,99841.97
2023-05-23T19:39:39.090Z,99841.06
2023-05-23T19:42:06.417Z,99845.41
2023-05-23T19:44:33.392Z,99841.91
2023-05-23T19:47:00.448Z,99835.75
2023-05-23T19:49:27.657Z,99841.81
2023-05-23T19:51:54.754Z,99838.31
2023-05-23T19:54:23.141Z,99836.66
2023-05-23T19:56:50.278Z,99840.13
2023-05-23T19:59:17.247Z,99834.03
2023-05-23T20:01:44.431Z,99834.88
2023-05-23T20:04:13.063Z,99834.94
2023-05-23T20:06:40.316Z,99838.38
2023-05-23T20:09:07.760Z,99835.81
2023-05-23T20:11:35.275Z,99828.88
2023-05-23T20:14:02.325Z,99840.22
2023-05-23T20:16:29.436Z,99830.63
2023-05-23T20:18:56.545Z,99835.91
2023-05-23T20:21:23.551Z,99839.41
2023-05-23T20:23:50.736Z,99837.69
2023-05-23T20:26:17.767Z,99835.97
2023-05-23T20:28:44.739Z,99832.53
2023-05-23T20:31:11.858Z,99830.81
2023-05-23T20:33:39.048Z,99827.38
2023-05-23T20:36:06.862Z,99833.50
2023-05-23T20:38:34.265Z,99836.13
2023-05-23T20:41:07.528Z,99828.28
2023-05-23T20:43:37.404Z,99824.00
2023-05-23T20:46:14.608Z,99822.28
2023-05-23T20:48:41.970Z,99824.91
2023-05-23T20:51:09.243Z,99819.69
2023-05-23T20:53:36.369Z,99824.91
2023-05-23T20:56:03.612Z,99817.06
2023-05-23T20:58:30.905Z,99817.97
2023-05-23T21:00:58.830Z,99820.63
2023-05-23T21:03:26.561Z,99824.13
2023-05-23T21:05:53.700Z,99820.66
2023-05-23T21:08:21.860Z,99821.53
2023-05-23T21:10:51.556Z,99819.81
2023-05-23T21:13:20.790Z,99826.81
2023-05-23T21:15:47.989Z,99820.75
2023-05-23T21:18:15.017Z,99828.63
2023-05-23T21:20:42.272Z,99826.88
2023-05-23T21:23:09.676Z,99822.56
2023-05-23T21:25:36.769Z,99828.69
2023-05-23T21:28:03.901Z,99828.69
2023-05-23T21:30:31.274Z,99827.88
2023-05-23T21:32:58.522Z,99824.41
2023-05-23T21:35:25.708Z,99824.47
2023-05-23T21:37:52.845Z,99830.59
2023-05-23T21:40:19.977Z,99826.25
2023-05-23T21:42:47.765Z,99825.44
2023-05-23T21:45:14.886Z,99821.94
2023-05-23T21:47:42.058Z,99824.59
2023-05-23T21:50:09.541Z,99827.28
2023-05-23T21:52:36.679Z,99820.34
2023-05-23T21:55:03.758Z,99816.09
2023-05-23T21:57:31.224Z,99815.28
2023-05-23T21:59:58.577Z,99813.59
2023-05-23T22:02:25.702Z,99813.66
2023-05-23T22:04:52.822Z,99810.25
2023-05-23T22:07:25.154Z,99812.91
2023-05-23T22:09:53.479Z,99819.03
2023-05-23T22:12:20.740Z,99816.41
2023-05-23T22:14:47.930Z,99808.59
2023-05-23T22:17:15.184Z,99810.34
2023-05-23T22:19:42.313Z,99815.59
2023-05-23T22:22:12.024Z,99814.69
2023-05-23T22:24:39.280Z,99815.59
2023-05-23T22:27:06.512Z,99812.97
2023-05-23T22:29:33.637Z,99817.38
2023-05-23T22:32:00.984Z,99806.97
2023-05-23T22:34:28.189Z,99807.88
2023-05-23T22:36:56.520Z,99808.81
2023-05-23T22:39:24.738Z,99802.75
2023-05-23T22:41:52.332Z,99797.53
2023-05-23T22:44:19.301Z,99793.22
2023-05-23T22:46:46.404Z,99790.66
2023-05-23T22:49:13.638Z,99791.50
2023-05-23T22:51:40.726Z,99792.38
2023-05-23T22:54:07.938Z,99788.88
2023-05-23T22:56:34.939Z,99798.50
2023-05-23T22:59:01.920Z,99793.28
2023-05-23T23:01:29.980Z,99791.53
2023-05-23T23:03:57.146Z,99790.66
2023-05-23T23:06:24.243Z,99794.19
2023-05-23T23:08:51.994Z,99790.72
2023-05-23T23:11:19.020Z,99790.72
2023-05-23T23:13:46.238Z,99787.22
2023-05-23T23:16:13.287Z,99790.72
2023-05-23T23:18:40.427Z,99777.66
2023-05-23T23:21:07.445Z,99782.00
2023-05-23T23:23:34.778Z,99782.00
2023-05-23T23:26:01.971Z,99781.16
2023-05-23T23:28:29.111Z,99784.63
2023-05-23T23:30:56.175Z,99783.78
2023-05-23T23:33:23.149Z,99789.91
2023-05-23T23:35:51.870Z,99789.06
2023-05-23T23:38:19.107Z,99797.84
2023-05-23T23:40:46.184Z,99790.97
2023-05-23T23:43:13.523Z,99789.25
2023-05-23T23:45:40.731Z,99782.28
2023-05-23T23:48:07.925Z,99781.47
2023-05-23T23:50:34.950Z,99781.53
2023-05-23T23:53:02.501Z,99773.81
2023-05-23T23:55:29.517Z,99772.91
2023-05-23T23:57:56.630Z,99779.97
